Time;durP1;ratioP1;P1;durP2;ratioP2;P2;SDS_P1;SDS_P2;PMS_P1;PMS_P2;Temp;Humidity;BMP_temperature;BMP_pressure;BME280_temperature;BME280_humidity;BME280_pressure;Samples;Min_cycle;Max_cycle;Signal;HPM_P1;HPM_P2
2023/10/31 00:00:09;;;;;;;21.67;10.88;;;13.90;99.90;;;;;;5013864;28;20144;-75
2023/10/31 00:02:39;;;;;;;16.08;9.40;;;13.90;99.90;;;;;;5041372;28;20056;-76
2023/10/31 00:05:08;;;;;;;20.70;9.20;;;13.90;99.90;;;;;;5038547;28;20053;-75
2023/10/31 00:07:36;;;;;;;15.48;8.57;;;13.80;99.90;;;;;;5034399;28;20053;-76
2023/10/31 00:10:06;;;;;;;13.65;7.18;;;13.80;99.90;;;;;;5006891;28;20056;-78
2023/10/31 00:12:34;;;;;;;17.75;7.95;;;13.80;99.90;;;;;;5030934;28;20524;-75
2023/10/31 00:15:03;;;;;;;14.75;7.53;;;13.80;99.90;;;;;;5016215;28;20049;-77
2023/10/31 00:17:31;;;;;;;15.43;8.00;;;13.80;99.90;;;;;;5035423;28;20063;-75
2023/10/31 00:20:01;;;;;;;14.85;7.70;;;13.80;99.90;;;;;;5026165;28;20138;-75
2023/10/31 00:22:30;;;;;;;19.33;8.95;;;13.80;99.90;;;;;;4994569;28;20496;-74
2023/10/31 00:24:58;;;;;;;17.67;7.97;;;13.70;99.90;;;;;;5027307;28;20049;-76
2023/10/31 00:27:27;;;;;;;16.30;8.18;;;13.70;99.90;;;;;;5009291;28;20731;-76
2023/10/31 00:29:55;;;;;;;16.85;8.15;;;13.80;99.90;;;;;;5034425;28;20096;-76
2023/10/31 00:32:25;;;;;;;11.93;8.13;;;13.80;99.90;;;;;;5024996;28;20120;-76
2023/10/31 00:34:54;;;;;;;16.60;8.40;;;14.50;99.90;;;;;;5011151;28;20049;-76
2023/10/31 00:37:24;;;;;;;13.23;7.43;;;13.70;99.90;;;;;;5006562;28;20053;-75
2023/10/31 00:39:52;;;;;;;13.20;7.57;;;13.70;99.90;;;;;;5022768;28;20049;-75
2023/10/31 00:42:21;;;;;;;15.00;6.95;;;13.70;99.90;;;;;;5017487;28;20188;-79
2023/10/31 00:44:49;;;;;;;14.10;7.40;;;13.70;99.90;;;;;;5032986;28;20496;-74
2023/10/31 00:47:17;;;;;;;16.25;7.53;;;13.70;99.90;;;;;;5031736;28;20187;-76
2023/10/31 00:49:46;;;;;;;13.38;6.63;;;13.70;99.90;;;;;;5012194;28;20059;-76
2023/10/31 00:52:15;;;;;;;15.50;6.85;;;13.70;99.90;;;;;;5021786;28;20053;-76
2023/10/31 00:54:45;;;;;;;15.88;6.90;;;13.60;99.90;;;;;;5017601;28;20040;-76
2023/10/31 00:57:13;;;;;;;14.10;7.18;;;13.60;99.90;;;;;;5021981;28;20060;-77
2023/10/31 00:59:42;;;;;;;13.90;7.30;;;13.60;99.90;;;;;;5025302;28;20077;-76
2023/10/31 01:02:11;;;;;;;16.30;7.15;;;13.60;99.90;;;;;;5040351;28;20057;-76
2023/10/31 01:04:39;;;;;;;16.73;8.30;;;13.60;99.90;;;;;;5027459;28;20050;-77
2023/10/31 01:07:11;;;;;;;13.15;7.70;;;13.50;99.90;;;;;;5010983;28;20909;-76
2023/10/31 01:09:40;;;;;;;14.63;7.22;;;13.50;99.90;;;;;;5026657;28;20134;-74
2023/10/31 01:12:11;;;;;;;15.18;7.50;;;13.50;99.90;;;;;;5026793;28;20062;-75
2023/10/31 01:14:40;;;;;;;13.93;7.93;;;13.50;99.90;;;;;;5026749;28;20056;-76
2023/10/31 01:17:09;;;;;;;14.25;7.60;;;13.50;99.90;;;;;;5022469;28;20179;-76
2023/10/31 01:19:38;;;;;;;13.93;7.88;;;13.40;99.90;;;;;;5030116;28;20167;-75
2023/10/31 01:22:07;;;;;;;15.05;7.45;;;13.40;99.90;;;;;;5025521;28;20736;-77
2023/10/31 01:24:36;;;;;;;14.85;6.88;;;13.40;99.90;;;;;;5031259;28;20052;-78
2023/10/31 01:27:05;;;;;;;14.38;6.63;;;13.40;99.90;;;;;;5033135;28;20118;-78
2023/10/31 01:29:35;;;;;;;15.25;7.75;;;13.40;99.90;;;;;;5042231;28;20084;-76
2023/10/31 01:32:04;;;;;;;13.23;7.30;;;13.40;99.90;;;;;;5033076;28;20110;-75
2023/10/31 01:34:44;;;;;;;15.60;7.18;;;13.40;99.90;;;;;;5030710;28;20542;-76
2023/10/31 01:37:13;;;;;;;11.52;6.18;;;13.40;99.90;;;;;;5042604;28;20534;-78
2023/10/31 01:39:42;;;;;;;13.23;8.05;;;13.40;99.90;;;;;;5029305;28;20951;-75
2023/10/31 01:42:10;;;;;;;13.93;7.15;;;13.40;99.90;;;;;;5020518;28;20057;-76
2023/10/31 01:44:40;;;;;;;18.17;8.27;;;13.40;99.90;;;;;;5027147;28;20041;-75
2023/10/31 01:47:11;;;;;;;14.00;7.63;;;13.30;99.90;;;;;;5029756;28;20151;-77
2023/10/31 01:49:41;;;;;;;13.27;7.25;;;13.30;99.90;;;;;;5039345;28;20056;-78
2023/10/31 01:52:09;;;;;;;14.02;7.55;;;13.40;99.90;;;;;;5024222;28;20053;-75
2023/10/31 01:54:38;;;;;;;14.27;7.93;;;13.30;99.90;;;;;;5030919;28;20143;-76
2023/10/31 01:57:08;;;;;;;16.70;7.43;;;13.30;99.90;;;;;;5031631;28;20061;-76
2023/10/31 01:59:37;;;;;;;12.60;7.40;;;13.30;99.90;;;;;;5042046;28;20072;-74
2023/10/31 02:02:07;;;;;;;12.05;7.10;;;13.40;99.90;;;;;;5039651;28;20086;-75
2023/10/31 02:04:36;;;;;;;13.13;7.13;;;13.40;99.90;;;;;;5030148;28;20049;-77
2023/10/31 02:07:05;;;;;;;16.27;7.60;;;13.40;99.90;;;;;;5034088;28;20045;-76
2023/10/31 02:09:34;;;;;;;11.10;6.68;;;13.40;99.90;;;;;;5032098;28;20060;-76
2023/10/31 02:12:03;;;;;;;14.93;7.30;;;13.40;99.90;;;;;;5034892;28;20057;-76
2023/10/31 02:14:31;;;;;;;13.10;7.22;;;13.40;99.90;;;;;;5010025;28;20102;-76
2023/10/31 02:17:00;;;;;;;14.55;7.78;;;13.40;99.90;;;;;;5016008;28;22460;-77
2023/10/31 02:19:29;;;;;;;12.55;7.65;;;13.40;99.90;;;;;;5039286;28;20539;-75
2023/10/31 02:21:59;;;;;;;12.07;7.35;;;13.30;99.90;;;;;;5030665;28;22655;-76
2023/10/31 02:24:28;;;;;;;15.88;7.63;;;13.40;99.90;;;;;;5027798;28;20103;-76
2023/10/31 02:26:57;;;;;;;13.93;7.20;;;13.30;99.90;;;;;;5029888;28;20701;-77
2023/10/31 02:29:25;;;;;;;18.38;8.10;;;13.40;99.90;;;;;;5056391;28;20134;-75
2023/10/31 02:31:55;;;;;;;14.07;6.82;;;13.40;99.90;;;;;;5022030;28;20060;-75
2023/10/31 02:34:23;;;;;;;13.65;7.90;;;13.40;99.90;;;;;;5024834;28;20057;-78
2023/10/31 02:36:52;;;;;;;14.70;8.40;;;13.30;99.90;;;;;;5020953;28;20071;-76
2023/10/31 02:39:22;;;;;;;15.02;7.38;;;13.30;99.90;;;;;;5006372;28;20079;-76
2023/10/31 02:41:50;;;;;;;12.30;7.70;;;13.30;99.90;;;;;;5023357;28;20057;-75
2023/10/31 02:44:19;;;;;;;16.33;8.10;;;13.30;99.90;;;;;;5041772;28;20044;-76
2023/10/31 02:46:48;;;;;;;11.75;7.35;;;13.30;99.90;;;;;;5026098;28;20056;-74
2023/10/31 02:49:17;;;;;;;11.52;6.88;;;13.30;99.90;;;;;;5038863;28;20056;-76
2023/10/31 02:51:45;;;;;;;15.13;8.02;;;13.30;99.90;;;;;;5052942;28;20144;-76
2023/10/31 02:54:14;;;;;;;13.30;7.70;;;13.30;99.90;;;;;;5019829;28;20407;-76
2023/10/31 02:56:44;;;;;;;12.63;7.07;;;13.30;99.90;;;;;;5007227;28;20513;-76
2023/10/31 02:59:12;;;;;;;12.75;6.72;;;13.30;99.90;;;;;;5025793;28;20060;-78
2023/10/31 03:01:41;;;;;;;13.18;6.97;;;13.30;99.90;;;;;;5029006;28;20718;-75
2023/10/31 03:04:09;;;;;;;14.73;7.10;;;13.30;99.90;;;;;;5023015;28;20520;-76
2023/10/31 03:06:38;;;;;;;11.73;6.38;;;13.30;99.90;;;;;;5011838;28;20578;-75
2023/10/31 03:09:08;;;;;;;14.25;6.97;;;13.30;99.90;;;;;;5013618;28;20148;-76
2023/10/31 03:11:36;;;;;;;14.70;6.25;;;13.30;99.90;;;;;;5032527;28;20553;-76
2023/10/31 03:14:06;;;;;;;10.00;6.10;;;13.40;99.90;;;;;;5027628;28;20053;-75
2023/10/31 03:16:35;;;;;;;12.18;6.63;;;13.40;99.90;;;;;;5022392;28;20053;-76
2023/10/31 03:19:03;;;;;;;11.43;6.03;;;13.40;99.90;;;;;;5024062;28;20511;-75
2023/10/31 03:21:32;;;;;;;11.40;6.50;;;13.40;99.90;;;;;;5028892;28;20156;-79
2023/10/31 03:24:01;;;;;;;16.27;6.15;;;13.40;99.90;;;;;;5028504;28;20087;-76
2023/10/31 03:26:30;;;;;;;12.93;6.75;;;13.40;99.90;;;;;;5027433;28;20048;-76
2023/10/31 03:28:58;;;;;;;10.65;6.63;;;13.40;99.90;;;;;;5028629;28;20048;-75
2023/10/31 03:31:28;;;;;;;12.73;5.95;;;13.40;99.90;;;;;;5044427;28;20496;-76
2023/10/31 03:33:57;;;;;;;11.45;6.35;;;13.40;99.90;;;;;;5041050;28;20412;-77
2023/10/31 03:36:25;;;;;;;12.23;6.28;;;13.40;99.90;;;;;;5028458;28;22670;-77
2023/10/31 03:38:54;;;;;;;10.98;6.13;;;13.40;99.90;;;;;;5033116;28;20464;-77
2023/10/31 03:41:22;;;;;;;11.32;6.43;;;13.30;99.90;;;;;;5006451;28;20049;-76
2023/10/31 03:43:51;;;;;;;10.48;5.90;;;13.30;99.90;;;;;;5025228;28;20510;-77
2023/10/31 03:46:20;;;;;;;9.63;6.15;;;13.30;99.90;;;;;;5021974;28;20147;-76
2023/10/31 03:48:50;;;;;;;10.73;6.20;;;13.40;99.90;;;;;;5027434;28;20273;-77
2023/10/31 03:51:19;;;;;;;12.55;6.45;;;13.40;99.90;;;;;;5022942;28;20146;-75
2023/10/31 03:53:47;;;;;;;12.75;6.13;;;13.30;99.90;;;;;;5021673;28;20108;-77
2023/10/31 03:56:17;;;;;;;10.75;5.85;;;13.30;99.90;;;;;;5031390;28;20517;-76
2023/10/31 03:58:46;;;;;;;8.55;5.97;;;13.40;99.90;;;;;;5021105;28;20061;-77
2023/10/31 04:01:14;;;;;;;10.00;5.97;;;13.30;99.90;;;;;;5021694;28;20049;-75
2023/10/31 04:03:43;;;;;;;10.77;5.97;;;13.30;99.90;;;;;;5029038;28;20057;-75
2023/10/31 04:06:14;;;;;;;9.52;5.60;;;13.30;99.90;;;;;;5021772;28;20132;-76
2023/10/31 04:08:44;;;;;;;9.73;5.88;;;13.30;99.90;;;;;;5027282;28;20057;-77
2023/10/31 04:11:13;;;;;;;10.85;5.63;;;13.20;99.90;;;;;;5027609;28;20065;-77
2023/10/31 04:13:41;;;;;;;12.40;5.47;;;13.20;99.90;;;;;;5027498;28;20076;-76
2023/10/31 04:16:13;;;;;;;11.23;5.50;;;13.20;99.90;;;;;;5027188;28;20045;-74
2023/10/31 04:18:41;;;;;;;9.18;5.25;;;13.20;99.90;;;;;;5017323;28;20815;-73
2023/10/31 04:21:10;;;;;;;12.57;5.70;;;13.10;99.90;;;;;;5029317;28;20412;-77
2023/10/31 04:23:40;;;;;;;11.93;5.85;;;13.70;99.90;;;;;;5022906;28;20500;-74
2023/10/31 04:26:08;;;;;;;9.82;5.35;;;13.10;99.90;;;;;;5012548;28;20050;-73
2023/10/31 04:28:37;;;;;;;11.50;5.72;;;13.10;99.90;;;;;;5030849;28;20128;-72
2023/10/31 04:31:06;;;;;;;9.50;5.10;;;13.10;99.90;;;;;;5021216;28;20079;-76
2023/10/31 04:33:34;;;;;;;10.95;6.15;;;13.00;99.90;;;;;;5012048;28;20048;-75
2023/10/31 04:36:04;;;;;;;11.20;5.97;;;13.00;99.90;;;;;;5037036;28;20057;-76
2023/10/31 04:38:33;;;;;;;11.25;4.95;;;13.00;99.90;;;;;;5028848;28;20117;-77
2023/10/31 04:41:03;;;;;;;9.27;4.75;;;13.10;99.90;;;;;;5028174;28;20045;-77
2023/10/31 04:43:32;;;;;;;8.48;5.10;;;13.20;99.90;;;;;;5024110;28;20055;-75
2023/10/31 04:46:00;;;;;;;11.40;5.30;;;13.10;99.90;;;;;;5022775;28;20775;-74
2023/10/31 04:48:29;;;;;;;10.25;5.22;;;13.20;99.90;;;;;;5021482;28;20052;-77
2023/10/31 04:50:58;;;;;;;9.20;5.00;;;13.20;99.90;;;;;;5050298;28;20446;-75
2023/10/31 04:53:27;;;;;;;13.30;5.13;;;13.20;99.90;;;;;;5020283;28;20128;-75
2023/10/31 04:55:55;;;;;;;7.70;4.40;;;13.20;99.90;;;;;;5022290;28;20164;-75
2023/10/31 04:58:25;;;;;;;11.52;4.30;;;13.20;99.90;;;;;;5033205;28;20051;-75
2023/10/31 05:00:54;;;;;;;8.80;4.35;;;13.20;99.90;;;;;;5021268;28;20049;-75
2023/10/31 05:03:22;;;;;;;9.40;4.53;;;13.20;99.90;;;;;;5027970;28;20151;-74
2023/10/31 05:05:51;;;;;;;8.80;4.35;;;13.20;99.90;;;;;;5027338;28;20214;-74
2023/10/31 05:08:19;;;;;;;10.93;4.32;;;13.30;99.90;;;;;;5026299;28;20145;-75
2023/10/31 05:10:48;;;;;;;7.82;4.65;;;13.20;99.90;;;;;;5037317;28;20088;-75
2023/10/31 05:13:16;;;;;;;9.73;4.90;;;13.20;99.90;;;;;;5023118;28;20828;-74
2023/10/31 05:15:46;;;;;;;5.97;3.70;;;13.30;99.90;;;;;;5027621;28;20156;-74
2023/10/31 05:18:15;;;;;;;6.63;3.78;;;13.30;99.90;;;;;;5031638;28;22415;-75
2023/10/31 05:20:43;;;;;;;6.35;3.90;;;13.30;99.90;;;;;;5028306;28;20134;-75
2023/10/31 05:23:12;;;;;;;7.40;4.13;;;13.30;99.90;;;;;;5012778;28;20235;-76
2023/10/31 05:25:41;;;;;;;6.57;3.80;;;13.30;99.90;;;;;;5031524;28;20131;-75
2023/10/31 05:28:09;;;;;;;11.13;4.57;;;13.30;99.90;;;;;;5027752;28;20049;-75
2023/10/31 05:30:38;;;;;;;7.68;3.70;;;13.30;99.90;;;;;;5022017;28;20144;-74
2023/10/31 05:33:08;;;;;;;10.05;4.00;;;13.30;99.90;;;;;;5011974;28;20218;-76
2023/10/31 05:35:37;;;;;;;8.68;4.03;;;13.30;99.90;;;;;;5026376;28;20053;-76
2023/10/31 05:38:05;;;;;;;8.30;3.53;;;13.30;99.90;;;;;;5024125;28;20056;-76
2023/10/31 05:40:35;;;;;;;7.88;3.95;;;13.30;99.90;;;;;;5030609;28;20132;-76
2023/10/31 05:43:03;;;;;;;9.18;3.60;;;13.30;99.90;;;;;;5025540;28;20642;-76
2023/10/31 05:45:33;;;;;;;6.63;4.18;;;13.30;99.90;;;;;;5027596;28;20053;-77
2023/10/31 05:48:01;;;;;;;8.48;3.40;;;13.30;99.90;;;;;;5008848;28;20049;-76
2023/10/31 05:50:31;;;;;;;6.95;3.35;;;13.30;99.90;;;;;;5005437;28;20057;-76
2023/10/31 05:53:00;;;;;;;8.35;4.00;;;13.30;99.90;;;;;;5036745;28;20572;-77
2023/10/31 05:55:28;;;;;;;6.35;3.30;;;13.40;99.90;;;;;;5034031;28;20152;-77
2023/10/31 05:57:59;;;;;;;4.72;3.42;;;13.40;99.90;;;;;;5008845;28;20045;-78
2023/10/31 06:00:28;;;;;;;6.95;2.80;;;13.30;99.90;;;;;;5023238;28;20425;-77
2023/10/31 06:02:57;;;;;;;7.15;3.20;;;13.40;99.90;;;;;;5015847;28;20187;-82
2023/10/31 06:05:25;;;;;;;6.35;2.67;;;13.40;99.90;;;;;;5027075;28;20053;-82
2023/10/31 06:07:55;;;;;;;6.32;2.58;;;13.40;99.90;;;;;;5030787;28;20100;-82
2023/10/31 06:10:24;;;;;;;5.57;2.22;;;13.40;99.90;;;;;;5023731;28;20060;-81
2023/10/31 06:12:53;;;;;;;3.75;2.30;;;13.40;99.90;;;;;;5028296;28;20060;-82
2023/10/31 06:15:21;;;;;;;5.32;2.22;;;13.30;99.90;;;;;;5042687;28;20040;-83
2023/10/31 06:17:50;;;;;;;5.82;2.40;;;13.40;99.90;;;;;;5041144;28;20060;-82
2023/10/31 06:20:18;;;;;;;5.45;2.25;;;13.40;99.90;;;;;;5038547;28;20052;-83
2023/10/31 06:22:47;;;;;;;6.10;2.35;;;13.40;99.90;;;;;;5012836;28;20052;-83
2023/10/31 06:25:17;;;;;;;6.13;2.33;;;13.40;99.90;;;;;;5013212;28;20056;-82
2023/10/31 06:27:45;;;;;;;4.28;2.10;;;13.40;99.90;;;;;;5030434;28;20050;-82
2023/10/31 06:30:14;;;;;;;4.82;2.65;;;13.40;99.90;;;;;;5029780;28;20263;-81
2023/10/31 06:32:55;;;;;;;3.35;1.48;;;13.40;99.90;;;;;;5021673;28;20219;-81
2023/10/31 06:35:25;;;;;;;2.72;1.42;;;13.40;99.90;;;;;;5041329;28;20056;-82
2023/10/31 06:37:56;;;;;;;4.18;1.67;;;13.50;99.90;;;;;;5030660;28;20475;-82
2023/10/31 06:40:27;;;;;;;5.47;1.80;;;13.50;99.90;;;;;;5037066;28;20511;-81
2023/10/31 06:42:55;;;;;;;5.25;1.83;;;13.50;99.90;;;;;;5028151;28;20061;-82
2023/10/31 06:45:27;;;;;;;3.75;1.50;;;13.50;99.90;;;;;;5031586;28;20374;-82
2023/10/31 06:47:55;;;;;;;4.40;2.08;;;13.60;99.90;;;;;;5025004;28;20079;-81
2023/10/31 06:50:27;;;;;;;5.20;2.53;;;13.60;99.90;;;;;;5028592;28;20050;-79
2023/10/31 06:52:55;;;;;;;3.45;1.77;;;13.60;99.90;;;;;;5030421;28;20064;-76
2023/10/31 06:55:24;;;;;;;4.70;1.30;;;13.60;99.90;;;;;;5039713;28;20137;-80
2023/10/31 06:57:54;;;;;;;3.88;3.47;;;13.70;99.90;;;;;;5023298;28;20061;-81
2023/10/31 07:00:22;;;;;;;8.63;4.85;;;13.70;99.90;;;;;;5029499;28;22541;-77
2023/10/31 07:02:51;;;;;;;2.10;1.05;;;13.70;99.90;;;;;;5037095;28;20053;-81
2023/10/31 07:05:20;;;;;;;3.08;1.52;;;13.70;99.90;;;;;;5025145;28;20057;-81
2023/10/31 07:07:51;;;;;;;4.32;1.85;;;13.70;99.90;;;;;;5013815;28;20050;-76
2023/10/31 07:10:20;;;;;;;2.40;1.35;;;13.80;99.90;;;;;;5039205;28;20065;-77
2023/10/31 07:12:48;;;;;;;2.58;1.27;;;13.80;99.90;;;;;;5024377;28;20053;-80
2023/10/31 07:15:21;;;;;;;3.88;1.05;;;13.80;99.90;;;;;;5043128;28;20218;-75
2023/10/31 07:17:49;;;;;;;3.05;0.98;;;13.80;99.90;;;;;;5031042;28;20052;-78
2023/10/31 07:20:18;;;;;;;5.53;3.60;;;13.90;99.90;;;;;;5025599;28;20064;-77
2023/10/31 07:22:46;;;;;;;2.92;0.82;;;13.90;99.90;;;;;;5032029;28;23355;-82
2023/10/31 07:25:15;;;;;;;2.95;1.13;;;13.90;99.90;;;;;;5037222;28;20094;-82
2023/10/31 07:27:43;;;;;;;3.90;1.20;;;14.10;99.90;;;;;;5017466;28;20060;-77
2023/10/31 07:30:12;;;;;;;9.18;3.13;;;14.10;99.90;;;;;;5022426;28;20049;-85
2023/10/31 07:32:42;;;;;;;7.38;2.30;;;14.20;99.90;;;;;;5015232;28;21161;-82
2023/10/31 07:35:11;;;;;;;4.47;1.70;;;14.20;99.90;;;;;;5024085;28;20060;-82
2023/10/31 07:37:40;;;;;;;4.60;2.17;;;14.20;99.90;;;;;;5031525;28;20056;-86
2023/10/31 07:40:10;;;;;;;2.92;1.40;;;14.20;99.90;;;;;;5027096;28;20057;-86
2023/10/31 07:42:39;;;;;;;3.72;1.23;;;14.30;99.90;;;;;;5024279;28;20056;-84
2023/10/31 07:45:10;;;;;;;4.43;1.30;;;14.30;99.90;;;;;;5028439;28;20091;-84
2023/10/31 07:47:39;;;;;;;2.20;1.15;;;14.30;99.90;;;;;;5024168;28;20057;-86
2023/10/31 07:50:10;;;;;;;2.72;1.20;;;14.40;99.90;;;;;;5016774;28;20057;-86
2023/10/31 07:52:38;;;;;;;3.55;1.10;;;14.60;99.90;;;;;;5016320;28;20097;-85
2023/10/31 07:55:07;;;;;;;4.28;1.15;;;14.70;99.90;;;;;;5018884;28;20040;-85
2023/10/31 07:57:38;;;;;;;3.15;1.10;;;14.80;99.90;;;;;;5023663;28;20055;-86
2023/10/31 08:00:13;;;;;;;2.80;1.00;;;14.90;99.90;;;;;;5014384;28;20482;-85
2023/10/31 08:02:42;;;;;;;3.35;1.50;;;15.00;99.90;;;;;;5034659;28;20079;-86
2023/10/31 08:05:12;;;;;;;3.50;1.30;;;15.00;99.90;;;;;;5018332;28;22292;-84
2023/10/31 08:07:41;;;;;;;2.47;0.80;;;15.10;99.90;;;;;;5031698;28;20100;-84
2023/10/31 08:10:11;;;;;;;4.90;1.95;;;15.10;99.90;;;;;;5016937;28;20061;-87
2023/10/31 08:12:41;;;;;;;3.50;1.30;;;15.10;99.90;;;;;;5039164;28;20052;-89
2023/10/31 08:15:10;;;;;;;4.22;1.08;;;15.10;99.90;;;;;;5035102;28;20126;-84
2023/10/31 08:17:42;;;;;;;3.85;1.17;;;15.30;99.90;;;;;;5033942;28;20060;-87
2023/10/31 08:20:14;;;;;;;4.03;1.23;;;15.60;99.90;;;;;;5035873;28;20043;-91
2023/10/31 08:22:43;;;;;;;4.68;4.15;;;15.70;99.90;;;;;;5027453;28;20049;-83
2023/10/31 08:25:23;;;;;;;3.03;1.08;;;15.90;98.10;;;;;;5029222;28;20049;-87
2023/10/31 08:27:51;;;;;;;4.40;1.50;;;15.90;97.60;;;;;;5041767;28;20642;-86
2023/10/31 08:30:21;;;;;;;2.92;1.48;;;16.10;97.10;;;;;;5036757;28;20056;-84
2023/10/31 08:32:50;;;;;;;9.52;1.77;;;16.20;95.90;;;;;;5033616;28;20057;-83
2023/10/31 08:35:22;;;;;;;3.25;0.95;;;16.30;95.70;;;;;;5019149;28;20057;-88
2023/10/31 08:37:51;;;;;;;2.85;0.75;;;16.30;95.90;;;;;;5019036;28;20059;-84
2023/10/31 08:40:19;;;;;;;2.42;0.82;;;16.40;94.70;;;;;;5024428;28;20183;-83
2023/10/31 08:42:48;;;;;;;4.65;1.00;;;16.60;95.30;;;;;;5002583;28;20107;-75
2023/10/31 08:45:19;;;;;;;3.63;0.88;;;16.70;93.80;;;;;;5014439;28;20122;-89
2023/10/31 08:47:52;;;;;;;2.53;0.82;;;16.70;93.10;;;;;;5023889;28;20381;-83
2023/10/31 08:50:23;;;;;;;2.25;0.60;;;16.70;93.20;;;;;;5034384;28;20052;-81
2023/10/31 08:52:53;;;;;;;4.35;0.95;;;16.80;93.70;;;;;;5042846;28;20103;-86
2023/10/31 08:55:21;;;;;;;7.82;1.00;;;16.80;93.00;;;;;;5012652;28;20061;-82
2023/10/31 08:57:52;;;;;;;2.40;1.45;;;16.80;92.80;;;;;;5014894;28;20041;-81
2023/10/31 09:00:22;;;;;;;4.30;1.63;;;16.80;92.10;;;;;;5018863;28;20060;-88
2023/10/31 09:02:51;;;;;;;2.65;1.00;;;16.70;92.80;;;;;;5012343;28;22159;-81
2023/10/31 09:05:20;;;;;;;5.05;1.00;;;16.70;93.20;;;;;;5023389;28;20052;-84
2023/10/31 09:07:50;;;;;;;2.92;1.15;;;16.70;93.50;;;;;;5040905;28;20049;-86
2023/10/31 09:10:18;;;;;;;6.10;1.60;;;16.70;93.60;;;;;;5007915;28;20053;-84
2023/10/31 09:12:50;;;;;;;2.58;0.73;;;16.70;93.50;;;;;;5029555;28;20065;-85
2023/10/31 09:15:21;;;;;;;3.80;0.80;;;16.70;93.20;;;;;;5019164;28;20515;-80
2023/10/31 09:17:49;;;;;;;3.05;0.90;;;16.70;93.20;;;;;;5023668;28;21060;-82
2023/10/31 09:20:19;;;;;;;2.50;0.93;;;16.80;93.20;;;;;;5012183;28;20045;-89
2023/10/31 09:22:48;;;;;;;5.65;0.60;;;16.90;94.20;;;;;;5028287;28;20053;-89
2023/10/31 09:25:19;;;;;;;2.58;0.90;;;16.90;94.00;;;;;;5032429;28;22596;-89
2023/10/31 09:27:48;;;;;;;2.97;0.70;;;17.10;93.80;;;;;;5033945;28;20057;-86
2023/10/31 09:30:16;;;;;;;4.20;0.80;;;17.00;93.80;;;;;;5022113;28;20045;-85
2023/10/31 09:32:45;;;;;;;2.22;1.13;;;17.10;93.00;;;;;;5012668;28;22407;-79
2023/10/31 09:35:14;;;;;;;4.03;1.02;;;17.10;93.50;;;;;;4996203;28;20053;-83
2023/10/31 09:37:43;;;;;;;5.72;0.90;;;17.10;94.10;;;;;;5020403;28;20646;-80
2023/10/31 09:40:12;;;;;;;4.07;1.88;;;17.10;94.00;;;;;;5018240;28;20044;-82
2023/10/31 09:42:42;;;;;;;10.43;1.90;;;17.20;93.60;;;;;;5027383;28;20054;-82
2023/10/31 09:45:15;;;;;;;3.53;0.90;;;17.10;93.10;;;;;;5024286;28;20053;-85
2023/10/31 09:47:43;;;;;;;2.67;0.70;;;17.20;93.00;;;;;;5021011;28;20084;-84
2023/10/31 09:50:12;;;;;;;2.55;0.63;;;17.20;92.20;;;;;;5022812;28;20171;-87
2023/10/31 09:52:41;;;;;;;2.92;0.70;;;17.20;92.50;;;;;;5007075;28;20513;-82
2023/10/31 09:55:10;;;;;;;5.00;0.68;;;17.30;91.80;;;;;;5019749;28;20052;-84
2023/10/31 09:57:41;;;;;;;2.40;0.73;;;17.40;91.50;;;;;;5028876;28;20060;-89
2023/10/31 10:00:14;;;;;;;5.20;0.93;;;17.30;91.80;;;;;;5034306;28;20060;-85
2023/10/31 10:02:42;;;;;;;;;;;17.30;92.20;;;;;;5026834;28;20049;-83
2023/10/31 10:05:13;;;;;;;3.40;0.70;;;17.30;91.70;;;;;;5021638;28;20572;-81
2023/10/31 10:07:43;;;;;;;2.75;0.50;;;17.40;91.30;;;;;;5011843;28;20053;-81
2023/10/31 10:10:12;;;;;;;2.28;0.50;;;17.40;91.50;;;;;;5026471;28;20082;-81
2023/10/31 10:12:43;;;;;;;3.03;0.50;;;17.40;90.80;;;;;;5016395;28;20061;-88
2023/10/31 10:15:15;;;;;;;3.83;0.57;;;17.50;90.70;;;;;;5018689;28;20294;-80
2023/10/31 10:17:51;;;;;;;2.38;0.52;;;17.50;90.50;;;;;;5026717;28;20515;-79
2023/10/31 10:20:19;;;;;;;2.95;0.68;;;17.50;90.70;;;;;;5016412;28;20049;-82
2023/10/31 10:22:48;;;;;;;3.78;0.80;;;17.60;90.50;;;;;;5035547;28;20277;-78
2023/10/31 10:25:19;;;;;;;2.78;0.52;;;17.60;90.50;;;;;;5003430;28;20049;-82
2023/10/31 10:27:48;;;;;;;1.85;0.50;;;17.70;89.50;;;;;;5028107;28;20086;-83
2023/10/31 10:30:18;;;;;;;2.70;0.70;;;17.70;89.10;;;;;;5021742;28;20708;-89
2023/10/31 10:32:46;;;;;;;2.58;0.50;;;17.70;88.10;;;;;;5016653;28;20057;-76
2023/10/31 10:35:15;;;;;;;1.95;0.70;;;17.70;88.00;;;;;;5021421;28;22460;-86
2023/10/31 10:37:46;;;;;;;2.80;0.60;;;17.70;87.00;;;;;;5030306;28;20053;-77
2023/10/31 10:40:16;;;;;;;3.47;0.52;;;17.60;88.00;;;;;;5017813;28;20405;-78
2023/10/31 10:42:47;;;;;;;1.75;0.40;;;17.70;87.80;;;;;;5019675;28;20088;-84
2023/10/31 10:45:18;;;;;;;1.40;0.50;;;17.80;86.50;;;;;;5018617;28;20139;-80
2023/10/31 10:47:51;;;;;;;2.00;0.60;;;17.90;85.50;;;;;;5013699;28;20069;-79
2023/10/31 10:50:21;;;;;;;1.08;0.30;;;18.00;86.50;;;;;;4999869;28;20568;-76
2023/10/31 10:53:01;;;;;;;2.95;0.50;;;18.10;85.70;;;;;;4996808;28;20079;-76
2023/10/31 10:55:35;;;;;;;1.50;0.60;;;18.10;86.30;;;;;;5016552;28;20077;-83
2023/10/31 10:58:06;;;;;;;3.03;0.43;;;18.20;86.20;;;;;;5014269;28;20050;-76
2023/10/31 11:00:40;;;;;;;1.48;0.45;;;18.30;86.00;;;;;;5009479;28;20044;-82
2023/10/31 11:03:09;;;;;;;4.60;1.25;;;18.30;87.00;;;;;;4999537;28;20696;-77
2023/10/31 11:05:38;;;;;;;5.35;0.70;;;18.30;85.90;;;;;;5013692;28;20049;-78
2023/10/31 11:08:11;;;;;;;3.15;0.50;;;18.30;86.10;;;;;;5018637;28;20176;-78
2023/10/31 11:10:40;;;;;;;;;;;18.40;85.20;;;;;;4998977;28;20083;-80
2023/10/31 11:13:09;;;;;;;2.03;0.30;;;18.40;84.70;;;;;;5008508;28;20316;-75
2023/10/31 11:15:42;;;;;;;3.53;0.40;;;18.50;84.80;;;;;;4993943;28;22319;-81
2023/10/31 11:18:11;;;;;;;1.20;0.30;;;18.50;84.00;;;;;;5028400;28;20541;-76
2023/10/31 11:20:40;;;;;;;4.70;0.40;;;18.60;83.60;;;;;;5016683;28;20729;-78
2023/10/31 11:23:09;;;;;;;1.63;0.52;;;18.60;84.00;;;;;;5014885;28;20768;-84
2023/10/31 11:25:43;;;;;;;1.88;0.35;;;18.50;83.10;;;;;;5017008;28;20436;-75
2023/10/31 11:28:14;;;;;;;2.75;0.22;;;18.40;82.80;;;;;;5014140;28;20045;-78
2023/10/31 11:30:44;;;;;;;0.85;0.20;;;18.60;83.60;;;;;;5014375;28;20404;-81
2023/10/31 11:33:14;;;;;;;3.45;0.47;;;18.70;82.30;;;;;;5043083;28;20401;-76
2023/10/31 11:35:44;;;;;;;1.92;0.50;;;18.80;84.60;;;;;;5016234;28;20447;-80
2023/10/31 11:38:13;;;;;;;1.85;0.40;;;18.90;81.60;;;;;;5004864;28;20058;-80
2023/10/31 11:41:01;;;;;;;2.90;0.40;;;18.80;82.10;;;;;;5028651;28;20151;-85
2023/10/31 11:43:50;;;;;;;1.55;0.60;;;18.80;81.20;;;;;;5014304;28;20049;-79
2023/10/31 11:46:22;;;;;;;3.20;0.38;;;18.80;82.10;;;;;;5013515;28;20179;-78
2023/10/31 11:48:52;;;;;;;5.22;0.70;;;18.80;81.80;;;;;;5007362;28;20533;-75
2023/10/31 11:51:21;;;;;;;2.20;0.30;;;18.70;83.00;;;;;;5013548;28;20614;-72
2023/10/31 11:53:50;;;;;;;1.75;0.30;;;18.60;82.10;;;;;;5024559;28;20060;-75
2023/10/31 11:56:20;;;;;;;2.55;0.38;;;18.60;82.80;;;;;;4999544;28;20045;-78
2023/10/31 11:58:57;;;;;;;2.83;0.30;;;18.60;83.10;;;;;;5004272;28;20053;-85
2023/10/31 12:01:27;;;;;;;2.75;0.40;;;18.50;82.60;;;;;;5011965;28;20053;-75
2023/10/31 12:03:55;;;;;;;2.63;0.20;;;18.40;83.60;;;;;;5016360;28;20049;-77
2023/10/31 12:06:24;;;;;;;0.88;0.30;;;18.30;83.90;;;;;;5005594;28;22237;-75
2023/10/31 12:08:52;;;;;;;3.60;0.40;;;18.20;83.70;;;;;;4995827;28;22406;-76
2023/10/31 12:11:21;;;;;;;5.00;0.30;;;18.20;83.10;;;;;;5028923;28;20546;-76
2023/10/31 12:13:55;;;;;;;2.42;0.75;;;18.10;83.70;;;;;;5019429;28;20438;-77
2023/10/31 12:16:27;;;;;;;6.35;0.52;;;18.00;86.10;;;;;;5015252;28;20045;-75
2023/10/31 12:18:57;;;;;;;3.57;1.00;;;17.90;85.40;;;;;;5023255;28;20068;-75
2023/10/31 12:21:40;;;;;;;3.92;1.60;;;18.00;84.90;;;;;;5022846;28;20819;-74
2023/10/31 12:24:10;;;;;;;3.72;0.85;;;18.10;84.60;;;;;;5030495;28;20053;-75
2023/10/31 12:26:40;;;;;;;4.40;1.70;;;17.90;85.80;;;;;;4994771;28;20052;-75
2023/10/31 12:41:51;;;;;;;9.93;2.58;;;17.70;88.00;;;;;;5125571;27;20453;-73
2023/10/31 12:44:25;;;;;;;7.22;2.13;;;15.50;99.90;;;;;;5095769;28;20089;-73
2023/10/31 12:46:54;;;;;;;5.40;2.17;;;15.40;99.90;;;;;;5101662;28;20521;-74
2023/10/31 12:49:23;;;;;;;6.32;1.95;;;15.40;99.90;;;;;;5096330;28;20052;-73
2023/10/31 12:52:00;;;;;;;5.93;2.00;;;15.20;99.90;;;;;;5082977;28;20048;-73
2023/10/31 12:54:30;;;;;;;14.63;9.15;;;15.10;99.90;;;;;;5086379;28;20044;-74
2023/10/31 12:57:05;;;;;;;25.38;15.10;;;15.00;99.90;;;;;;5075205;28;20510;-74
2023/10/31 12:59:34;;;;;;;8.60;5.03;;;14.90;99.90;;;;;;5098657;28;20384;-75
2023/10/31 13:02:03;;;;;;;7.72;4.53;;;14.90;99.90;;;;;;5097602;28;20039;-74
2023/10/31 13:04:33;;;;;;;8.15;4.75;;;15.00;99.90;;;;;;5076577;28;20431;-75
2023/10/31 13:07:03;;;;;;;9.25;5.30;;;15.10;99.90;;;;;;5093430;28;20068;-76